Latest Weather Observations for Maria Island

IDT60801

Issued at 2:31 pm EST Tuesday 3 May 2016 (issued every 30 minutes, with the page automatically refreshed every 10 minutes)

About weather observations | Map of weather stations | Latest weather observations for TAS | Other Formats
Station Details ID: 092124 Name: MARIA ISLAND (POINT LESUEUR) Lat: -42.66 Lon: 148.02 Height: 28.0 m
Data from the previous 72 hours. | See also: Recent months at Maria Island
Date/Time
EST
Temp
°C
App
Temp
°C
Dew
Point
Rel
Hum
%
Delta-T
°C
Wind Press
QNH
hPa
Press
MSL
hPa
Rain
since 9 am
mm
Dir
 
Spd
km/h
Gust
km/h
Spd
kts
Gust
kts
03/02:30pm 14.0 - - - - NNW 13 15 7 8 987.5 987.5 1.6
03/02:00pm 13.5 - - - - WNW 13 17 7 9 987.4 987.4 1.6
03/01:30pm 13.4 - - - - NNW 11 19 6 10 987.2 987.2 1.6
03/01:00pm 13.0 - - - - W 4 6 2 3 987.1 987.1 1.6
03/12:30pm 12.6 - - - - W 7 11 4 6 988.0 988.0 1.6
03/12:00pm 12.4 - - - - WNW 15 22 8 12 988.1 988.1 1.4
03/11:30am 13.1 - - - - W 24 33 13 18 987.9 987.9 0.8
03/11:00am 14.8 - - - - NW 19 24 10 13 988.0 988.0 0.2
03/10:30am 14.3 - - - - NNW 32 39 17 21 987.5 987.5 0.2
03/10:00am 14.4 - - - - NW 41 46 22 25 987.5 987.5 0.0
03/09:30am 14.8 - - - - NW 37 44 20 24 987.5 987.5 0.0
03/09:00am 14.4 - - - - NW 35 43 19 23 988.0 988.0 4.0
03/08:30am 13.9 - - - - NNW 33 39 18 21 987.9 987.9 3.2
03/08:00am 14.2 - - - - NW 33 44 18 24 987.9 987.9 2.8
03/07:30am 14.1 - - - - NW 46 56 25 30 987.9 987.9 2.0
03/07:19am 14.3 - - - - NW 54 70 29 38 987.1 987.1 1.4
03/07:05am 14.8 - - - - NW 69 89 37 48 986.8 986.8 0.6
03/07:00am 15.3 - - - - NW 70 89 38 48 986.2 986.2 0.2
03/06:30am 16.0 - - - - NW 74 95 40 51 985.0 985.0 0.0
03/06:00am 16.1 - - - - NW 78 98 42 53 984.9 984.9 0.0
03/05:30am 16.3 - - - - NW 74 102 40 55 985.6 985.6 0.0
03/05:00am 16.2 - - - - NNW 70 91 38 49 986.5 986.5 0.0
03/04:30am 16.3 - - - - NNW 70 91 38 49 986.5 986.5 0.0
03/04:00am 16.6 - - - - NNW 67 87 36 47 987.3 987.3 0.0
03/03:33am 16.5 - - - - NNW 57 76 31 41 988.2 988.2 0.0
03/03:30am 16.5 - - - - NNW 61 76 33 41 988.0 988.0 0.0
03/03:00am 16.5 - - - - NNW 54 83 29 45 988.6 988.6 0.0
03/02:54am 16.4 - - - - NNW 56 83 30 45 988.6 988.6 0.0
03/02:30am 16.3 - - - - N 57 76 31 41 989.0 989.0 0.0
03/02:06am 16.1 - - - - N 61 82 33 44 988.8 988.8 0.0
03/02:00am 16.2 - - - - N 67 82 36 44 989.2 989.2 0.0
03/01:34am 16.4 - - - - N 61 83 33 45 989.4 989.4 0.0
03/01:30am 16.1 - - - - N 57 72 31 39 990.0 990.0 0.0
03/01:12am 16.1 - - - - NNW 65 83 35 45 989.0 989.0 0.0
03/01:00am 16.1 - - - - NNW 67 82 36 44 989.3 989.3 0.0
03/12:47am 16.0 - - - - NNW 61 85 33 46 989.4 989.4 0.0
03/12:30am 15.7 - - - - N 65 80 35 43 990.1 990.1 0.0
03/12:00am 15.8 - - - - N 70 96 38 52 989.2 989.2 0.0
 
Date/Time
EST
Temp
°C
App
Temp
°C
Dew
Point
Rel
Hum
%
Delta-T
°C
Wind Press
QNH
hPa
Press
MSL
hPa
Rain
since 9 am
mm
Dir
 
Spd
km/h
Gust
km/h
Spd
kts
Gust
kts
02/11:30pm 16.1 - - - - NNW 65 89 35 48 990.9 990.9 0.0
02/11:00pm 16.1 - - - - NNW 70 95 38 51 990.9 990.9 0.0
02/10:30pm 15.8 - - - - N 72 93 39 50 990.7 990.7 0.0
02/10:00pm 15.6 - - - - N 63 83 34 45 991.6 991.6 0.0
02/09:59pm 15.5 - - - - N 63 82 34 44 991.6 991.6 0.0
02/09:30pm 15.3 - - - - N 63 74 34 40 993.1 993.1 0.0
02/09:00pm 15.0 - - - - N 61 72 33 39 993.8 993.8 0.0
02/08:30pm 15.3 - - - - N 56 72 30 39 994.4 994.4 0.0
02/08:11pm 15.3 - - - - N 54 72 29 39 995.1 995.1 0.0
02/08:00pm 15.3 - - - - N 56 72 30 39 994.9 994.9 0.0
02/07:30pm 15.2 - - - - N 54 70 29 38 995.4 995.4 0.0
02/07:00pm 15.2 - - - - N 54 69 29 37 995.5 995.5 0.0
02/06:30pm 15.2 - - - - N 54 72 29 39 996.1 996.1 0.0
02/06:00pm 15.0 - - - - N 54 65 29 35 996.1 996.1 0.0
02/05:42pm 15.0 - - - - N 56 76 30 41 996.0 996.0 0.0
02/05:30pm 15.2 - - - - NNW 59 70 32 38 996.1 996.1 0.0
02/05:00pm 15.2 - - - - NNW 56 67 30 36 996.5 996.5 0.0
02/04:30pm 15.2 - - - - NNW 52 61 28 33 996.6 996.6 0.0
02/04:00pm 15.9 - - - - NNW 44 56 24 30 997.0 997.0 0.0
02/03:30pm 16.3 - - - - NNW 43 52 23 28 997.2 997.2 0.0
02/03:00pm 17.3 - - - - NNW 37 48 20 26 997.7 997.7 0.0
02/02:30pm 16.8 - - - - NNW 33 43 18 23 998.0 998.0 0.0
02/02:00pm 16.7 - - - - NNW 28 35 15 19 998.6 998.6 0.0
02/01:30pm 16.9 - - - - NNW 32 39 17 21 999.0 999.0 0.0
02/01:00pm 15.9 - - - - NNW 32 39 17 21 999.4 999.3 0.0
02/12:30pm 15.3 - - - - NNW 28 35 15 19 1000.2 1000.2 0.0
02/12:00pm 14.7 - - - - N 28 32 15 17 1000.8 1000.8 0.0
02/11:30am 14.4 - - - - NNW 30 37 16 20 1001.1 1001.1 0.0
02/11:00am 13.4 - - - - N 33 41 18 22 1001.8 1001.8 0.0
02/10:30am 12.7 - - - - N 39 46 21 25 1002.0 1002.0 0.0
02/10:00am 12.3 - - - - N 43 50 23 27 1002.1 1002.1 0.0
02/09:30am 11.3 - - - - N 41 48 22 26 1002.3 1002.3 0.0
02/09:00am 10.8 - - - - N 35 41 19 22 1002.8 1002.8 3.6
02/08:30am 10.8 - - - - N 39 44 21 24 1002.9 1002.9 3.6
02/08:00am 11.0 - - - - N 30 35 16 19 1003.1 1003.1 3.6
02/07:30am 11.0 - - - - N 20 26 11 14 1003.0 1003.0 3.6
02/07:00am 10.9 - - - - NW 19 24 10 13 1002.9 1002.9 3.6
02/06:30am 10.6 - - - - WNW 20 30 11 16 1002.9 1002.9 3.6
02/06:00am 10.6 - - - - NW 24 30 13 16 1003.0 1003.0 3.6
02/05:30am 10.3 - - - - WNW 22 30 12 16 1002.9 1002.9 3.6
02/05:00am 10.4 - - - - WNW 20 32 11 17 1002.9 1002.9 3.6
02/04:30am 10.2 - - - - WNW 24 32 13 17 1002.4 1002.4 3.6
02/04:00am 10.1 - - - - WNW 20 30 11 16 1002.4 1002.4 3.6
02/03:30am 9.9 - - - - NW 19 24 10 13 1002.6 1002.6 3.6
02/03:00am 9.9 - - - - WNW 24 30 13 16 1002.4 1002.4 3.6
02/02:30am 9.8 - - - - WNW 24 35 13 19 1002.2 1002.2 3.6
02/02:00am 10.3 - - - - WNW 30 44 16 24 1001.8 1001.8 3.6
02/01:30am 10.2 - - - - W 32 39 17 21 1001.6 1001.6 3.6
02/01:00am 10.2 - - - - WNW 26 37 14 20 1001.4 1001.4 3.6
02/12:30am 10.4 - - - - WNW 32 44 17 24 1000.8 1000.8 3.6
02/12:00am 10.8 - - - - W 43 54 23 29 1000.4 1000.4 3.6
 
Date/Time
EST
Temp
°C
App
Temp
°C
Dew
Point
Rel
Hum
%
Delta-T
°C
Wind Press
QNH
hPa
Press
MSL
hPa
Rain
since 9 am
mm
Dir
 
Spd
km/h
Gust
km/h
Spd
kts
Gust
kts
01/11:30pm 10.6 - - - - W 43 61 23 33 1000.2 1000.2 3.6
01/11:11pm 10.6 - - - - W 44 65 24 35 999.8 999.8 3.6
01/11:00pm 11.1 - - - - W 44 57 24 31 999.7 999.7 3.6
01/10:35pm 11.2 - - - - W 39 59 21 32 998.9 998.9 3.6
01/10:30pm 11.2 - - - - W 37 56 20 30 999.2 999.1 3.6
01/10:17pm 11.2 - - - - W 41 61 22 33 998.9 998.9 3.6
01/10:00pm 11.6 - - - - W 37 52 20 28 998.5 998.5 3.6
01/09:30pm 12.0 - - - - W 32 50 17 27 998.0 998.0 3.6
01/09:17pm 12.0 - - - - W 33 54 18 29 997.7 997.7 3.6
01/09:00pm 12.1 - - - - W 35 50 19 27 997.3 997.3 3.6
01/08:33pm 12.0 - - - - W 37 59 20 32 995.9 995.9 3.6
01/08:30pm 11.9 - - - - W 39 50 21 27 996.1 996.1 3.6
01/08:10pm 11.8 - - - - W 35 54 19 29 995.5 995.5 3.6
01/08:00pm 11.7 - - - - W 32 43 17 23 995.0 995.0 3.4
01/07:30pm 11.2 - - - - W 33 46 18 25 994.1 994.1 3.4
01/07:16pm 11.1 - - - - W 39 57 21 31 993.6 993.6 3.4
01/07:00pm 11.2 - - - - W 39 56 21 30 992.9 992.9 3.2
01/06:30pm 11.7 - - - - W 44 56 24 30 991.6 991.6 2.8
01/06:18pm 11.8 - - - - W 57 76 31 41 990.7 990.7 2.6
01/06:08pm 12.3 - - - - W 56 80 30 43 989.6 989.6 2.4
01/06:03pm 12.8 - - - - W 43 61 23 33 989.8 989.8 2.0
01/06:00pm 13.0 - - - - W 41 59 22 32 989.8 989.8 2.0
01/05:30pm 13.9 - - - - WNW 39 50 21 27 988.8 988.8 2.0
01/05:00pm 15.0 - - - - WNW 32 43 17 23 987.7 987.7 2.0
01/04:30pm 14.8 - - - - NNW 20 28 11 15 987.2 987.2 2.0
01/04:00pm 15.2 - - - - NNW 20 24 11 13 987.2 987.2 2.0
01/03:30pm 14.9 - - - - N 24 28 13 15 987.1 987.1 2.0
01/03:00pm 14.9 - - - - N 33 43 18 23 986.6 986.6 2.0
01/02:30pm 15.0 - - - - N 19 24 10 13 987.0 987.0 2.0
01/02:00pm 15.0 - - - - N 24 30 13 16 987.8 987.8 2.0
01/01:30pm 14.6 - - - - N 28 35 15 19 988.6 988.6 2.0
01/01:00pm 14.3 - - - - N 28 35 15 19 989.5 989.5 2.0
01/12:30pm 14.7 - - - - NNW 37 46 20 25 990.5 990.5 2.0
01/12:14pm 13.4 - - - - N 32 63 17 34 991.6 991.6 2.0
01/12:12pm 13.4 - - - - N 24 63 13 34 992.1 992.1 2.0
01/12:00pm 15.8 - - - - N 17 19 9 10 991.7 991.7 1.4
01/11:30am 16.3 - - - - NNW 15 17 8 9 992.6 992.6 1.4
01/11:00am 15.6 - - - - NNW 15 19 8 10 992.8 992.8 1.4
01/10:30am 15.4 - - - - N 17 20 9 11 993.3 993.3 1.4
01/10:00am 15.2 - - - - NNW 37 50 20 27 995.1 995.1 1.0
01/09:40am 15.4 - - - - NNW 35 52 19 28 994.9 994.9 0.2
01/09:30am 15.9 - - - - N 32 39 17 21 995.4 995.4 0.0
01/09:06am 16.7 - - - - N 28 46 15 25 995.8 995.8 0.0
01/09:00am 16.8 - - - - N 13 26 7 14 995.6 995.6 0.4
01/08:30am 16.4 - - - - N 22 24 12 13 996.3 996.3 0.4
01/08:00am 17.5 - - - - N 33 41 18 22 997.0 997.0 0.4
01/07:30am 16.8 - - - - N 19 24 10 13 997.2 997.2 0.4
01/07:00am 16.6 - - - - N 28 32 15 17 998.0 998.0 0.4
01/06:30am 16.7 - - - - N 26 32 14 17 998.7 998.7 0.4
01/06:00am 17.4 - - - - NNE 28 33 15 18 999.2 999.1 0.4
01/05:30am 17.2 - - - - NNE 28 35 15 19 1000.2 1000.1 0.4
01/05:00am 17.1 - - - - NNE 32 37 17 20 1000.6 1000.5 0.4
01/04:57am 17.0 - - - - NNE 30 37 16 20 1000.7 1000.6 0.4
01/04:30am 16.4 - - - - NNW 13 19 7 10 1001.9 1001.8 0.4
01/04:00am 15.8 - - - - NW 9 17 5 9 1002.3 1002.2 0.4
01/03:30am 16.6 - - - - N 22 24 12 13 1002.1 1002.0 0.4
01/03:00am 16.0 - - - - NNW 13 15 7 8 1002.6 1002.5 0.2
01/02:30am 16.1 - - - - NW 11 17 6 9 1003.6 1003.5 0.2
01/02:00am 17.3 - - - - N 26 30 14 16 1004.0 1003.9 0.0
01/01:30am 16.9 - - - - N 19 24 10 13 1004.7 1004.6 0.0
01/01:00am 16.9 - - - - N 24 28 13 15 1005.4 1005.3 0.0
01/12:30am 16.6 - - - - NW 22 33 12 18 1006.2 1006.1 0.0
01/12:00am 17.5 - - - - N 30 37 16 20 1005.8 1005.7 0.0
 
Date/Time
EST
Temp
°C
App
Temp
°C
Dew
Point
Rel
Hum
%
Delta-T
°C
Wind Press
QNH
hPa
Press
MSL
hPa
Rain
since 9 am
mm
Dir
 
Spd
km/h
Gust
km/h
Spd
kts
Gust
kts
30/11:30pm 17.5 - - - - N 33 41 18 22 1006.1 1006.0 0.0
30/11:00pm 17.2 - - - - N 30 33 16 18 1006.7 1006.6 0.0
30/10:30pm 17.3 - - - - N 30 35 16 19 1007.2 1007.2 0.0
30/10:00pm 17.4 - - - - N 32 37 17 20 1007.4 1007.4 0.0
30/09:30pm 17.4 - - - - N 26 30 14 16 1007.7 1007.7 0.0
30/09:00pm 18.1 - - - - N 26 33 14 18 1007.8 1007.8 0.0
30/08:30pm 18.2 - - - - N 30 35 16 19 1007.7 1007.7 0.0
30/08:00pm 18.0 - - - - N 30 37 16 20 1008.0 1008.0 0.0
30/07:30pm 18.2 - - - - N 35 44 19 24 1007.9 1007.9 0.0
30/07:00pm 18.0 - - - - N 32 37 17 20 1008.0 1008.0 0.0
30/06:30pm 18.3 - - - - N 37 46 20 25 1007.7 1007.7 0.0
30/06:00pm 18.5 - - - - N 39 46 21 25 1007.6 1007.6 0.0
30/05:30pm 18.6 - - - - N 39 44 21 24 1007.6 1007.6 0.0
30/05:00pm 18.6 - - - - N 33 41 18 22 1007.6 1007.6 0.0
30/04:30pm 19.0 - - - - N 33 41 18 22 1007.4 1007.4 0.0
30/04:00pm 19.1 - - - - N 32 37 17 20 1007.6 1007.6 0.0
30/03:30pm 19.5 - - - - N 28 33 15 18 1007.7 1007.7 0.0
30/03:00pm 19.1 - - - - N 28 41 15 22 1008.1 1008.1 0.0

Other Formats:

Comma delimited format used in spreadsheet applications
http://www.bom.gov.au/fwo/IDT60801/IDT60801.95988.axf

JavaScript Object Notation format (JSON) in row-major order
http://www.bom.gov.au/fwo/IDT60801/IDT60801.95988.json